Port Bolivar, Texas
Current Conditions -  °F | °C
As of 9:52 PM on Saturday 25 Oct 2014 (Local Time) from KGLS Reporting Station
Clear Clear  
Wind Chill: 71°   Ceiling: Unl
Heat Index: 71°   Visibility: 10mi
Dew Point: 60°   Wind: 6mph
Humidity: 68%   Direction: 160°SSE
Pressure: 30.12"   Gusts: NA
Location:  29.38°N, 94.77°W
Report Text: KGLS 260252Z AUTO 16005KT 10SM CLR 22/16 A3012 RMK AO2 SLP199 T02170156 50004
Loading
Personal Weather Stations






























Interactive Weather Map
Tropical Storm Tracking
New forecast layout! Learn more

10-Day Weather Forecast

Advertisements
Track Severe Weather on mobile